Adams, NY

5:11 AM EDT on September 02, 2014 (GMT -0400)
Deer Run Dairy | Change Station
CLOSE
Current Station
Personal Weather Station
Location: Adams, NY
Elevation: 420 ft
Nearby Weather Stations

Elev 420 ft 43.85 °N, 76.14 °W | Updated 4 minutes ago

Mostly Cloudy
Mostly Cloudy
73.5 °F
Feels Like 72 °F
N
9.0
Wind Variable Wind from SSW
Gusts 9.0 mph

Today
High -- | Low -- °F
--% Chance of Precip.
Yesterday
High -- | Low -- °F
Precip. -- in
6:28 AM 7:38 PM
Waxing Crescent, 49% visible
Pressure 29.78 in
Visibility 10.0 miles
Clouds Few 9500 ft
Heat Index 72 °F
Dew Point 69 °F
Humidity 87%
Rainfall 0.00 in
Snow Depth Not available.
UV 0 out of 12
Pollen 7.30 out of 12
Air Quality Not available.
Flu Activity Not available.
METAR KART 020856Z AUTO 20008G16KT 10SM FEW095 24/19 A2979 RMK AO2 SLP082 T02390189 56003

More Conditions Fewer Conditions

Pressure 29.78 in
Visibility 10.0 miles
Clouds Few 9500 ft
Heat Index 72 °F
Dew Point 69 °F
Humidity 87%
Rainfall 0.00 in
Snow Depth Not available.
UV 0 out of 12
Pollen 7.30 out of 12
Air Quality Not available.
Flu Activity Not available.
METAR KART 020856Z AUTO 20008G16KT 10SM FEW095 24/19 A2979 RMK AO2 SLP082 T02390189 56003

More Conditions Fewer Conditions

10-Day Weather Forecast

Almanac

Astronomy

Sep. 02, 2014 Rise Set
Actual Time 6:28 AM EDT 7:38 PM EDT
Civil Twilight 5:59 AM EDT 8:07 PM EDT
Nautical Twilight 5:23 AM EDT 8:42 PM EDT
Astronomical Twilight 4:46 AM EDT 9:20 PM EDT
Moon 2:24 PM EDT No Moon Set
Length of Visible Light 14h 08m
Length of Day
13h 09m
Tomorrow will be 2m 55s shorter.
Waxing Crescent, 49% of the Moon is Illuminated
Today
Waxing Crescent
Sep 2
First Quarter
Sep 8
Full
Sep 15
Last Quarter
Sep 24
New

Today's Extremes

State Highs State Lows

Community

WunderPhotos

Upload Photos

1,749,587 photos uploaded!

WunderBlogs® & News

Nearby

Air Quality

  Air Quality AQ Index Pollutant
Tuesday Good
PM2.5
Tuesday Good
OZONE

Snow Depth

Station Depth Elevation
No new snow has been reported.

Earthquake Activity

City Distance Mag. Time & Date
No recent earthquake activity has been reported nearby.
Minimum magnitude displayed is 2.5.

Coastal Water Temperatures

Place Temperature
Alexandria Bay, NY 69.1 °F
Ogdensburg, NY 66.0 °F

Nearby Weather Stations